Terminal Aerodrome Forecast
Issued by NWS

Home | Current Version | Previous Version | Text Only | Print | Product List | Glossary On
Versions: 1 2 3 4 5 6 7 8 9 10 11 12
000
FTUS46 KMTR 181720
TAFMRY
TAF
KMRY 181720Z 1818/1918 19003KT P6SM -RA SCT040 BKN080
     FM182100 15008KT P6SM -RA OVC050
     FM190000 12015G22KT P6SM -RA SCT020 OVC040
      TEMPO 1902/1906 3SM RA BR BKN020 OVC030
     FM190600 17012KT 6SM -SHRA OVC030
     FM191200 22009KT P6SM VCSH BKN035=

USA.gov is the U.S. government's official web portal to all federal, state and local government web resources and services.